createdAt,value
2019-05-26T00:01:32.869Z,12
2019-05-26T00:03:32.614Z,12
2019-05-26T00:04:36.764Z,12
2019-05-26T00:09:31.510Z,12
2019-05-26T00:11:31.933Z,12
2019-05-26T00:13:31.445Z,12
2019-05-26T00:15:31.907Z,12
2019-05-26T00:17:31.505Z,12
2019-05-26T00:19:32.026Z,12
2019-05-26T00:21:31.528Z,12
2019-05-26T00:23:31.998Z,12
2019-05-26T00:25:31.425Z,12
2019-05-26T00:27:31.827Z,12
2019-05-26T00:29:31.293Z,12
2019-05-26T00:31:31.734Z,12
2019-05-26T00:33:32.228Z,12
2019-05-26T00:35:31.645Z,12
2019-05-26T00:37:51.193Z,12
2019-05-26T00:39:31.419Z,12
2019-05-26T00:41:31.844Z,12
2019-05-26T00:43:32.351Z,12
2019-05-26T00:45:31.886Z,12
2019-05-26T00:47:31.401Z,12
2019-05-26T00:49:31.827Z,12
2019-05-26T00:51:31.311Z,12
2019-05-26T00:53:31.723Z,12
2019-05-26T00:55:32.174Z,12
2019-05-26T00:57:31.660Z,12
2019-05-26T00:59:32.118Z,12
2019-05-26T01:01:31.506Z,12
2019-05-26T01:03:32.035Z,12
2019-05-26T01:05:31.499Z,12
2019-05-26T01:07:31.970Z,12
2019-05-26T01:09:31.421Z,12
2019-05-26T01:11:31.814Z,12
2019-05-26T01:13:31.302Z,12
2019-05-26T01:15:31.758Z,11.9
2019-05-26T01:17:32.187Z,11.9
2019-05-26T01:19:31.714Z,11.9
2019-05-26T01:21:32.206Z,11.9
2019-05-26T01:23:31.779Z,11.9
2019-05-26T01:25:32.205Z,11.9
2019-05-26T01:27:31.629Z,11.9
2019-05-26T01:29:32.126Z,11.8
2019-05-26T01:31:31.665Z,11.8
2019-05-26T01:33:32.147Z,11.8
2019-05-26T01:35:31.561Z,11.7
2019-05-26T01:37:32.105Z,11.7
2019-05-26T01:39:31.479Z,11.7
2019-05-26T01:41:31.946Z,11.7
2019-05-26T01:43:31.868Z,11.7
2019-05-26T01:45:32.325Z,11.7
2019-05-26T01:47:31.748Z,11.7
2019-05-26T01:49:32.141Z,11.7
2019-05-26T01:51:31.592Z,11.7
2019-05-26T01:53:32.073Z,11.7
2019-05-26T01:55:31.543Z,11.7
2019-05-26T01:57:32.052Z,11.7
2019-05-26T01:59:31.634Z,11.6
2019-05-26T02:01:32.033Z,11.6
2019-05-26T02:03:31.417Z,11.6
2019-05-26T02:04:35.977Z,11.6
2019-05-26T02:06:39.415Z,11.6
2019-05-26T02:09:31.860Z,11.6
2019-05-26T02:11:32.320Z,11.6
2019-05-26T05:15:05.428Z,11.7
2019-05-26T05:16:36.904Z,12.1
2019-05-26T05:18:36.488Z,12.1
2019-05-26T05:20:37.051Z,12.1
2019-05-26T05:22:36.478Z,12.1
2019-05-26T05:24:36.932Z,12.2
2019-05-26T05:26:36.426Z,12.2
2019-05-26T05:28:36.945Z,12.2
2019-05-26T05:30:36.443Z,12.3
2019-05-26T05:32:36.923Z,12.3
2019-05-26T05:34:36.886Z,12.4
2019-05-26T05:36:34.890Z,12.4
2019-05-26T05:38:34.795Z,12.4
2019-05-26T05:40:36.182Z,12.5
2019-05-26T05:42:36.655Z,12.5
2019-05-26T05:44:36.136Z,12.6
2019-05-26T05:46:36.869Z,12.6
2019-05-26T05:48:36.343Z,12.6
2019-05-26T05:50:39.968Z,12.7
2019-05-26T05:52:36.375Z,12.7
2019-05-26T05:54:36.727Z,12.8
2019-05-26T05:56:36.181Z,12.8
2019-05-26T05:58:36.578Z,12.8
2019-05-26T06:00:36.977Z,12.9
2019-05-26T06:02:36.369Z,12.9
2019-05-26T06:04:36.718Z,12.9
2019-05-26T06:06:36.724Z,12.9
2019-05-26T06:08:34.728Z,12.9
2019-05-26T06:10:36.126Z,13.2
2019-05-26T06:12:36.576Z,13.2
2019-05-26T06:14:37.062Z,13.2
2019-05-26T06:16:36.613Z,13.2
2019-05-26T06:18:36.296Z,13.2
2019-05-26T06:20:36.718Z,13.3
2019-05-26T06:22:36.391Z,13.3
2019-05-26T06:24:36.739Z,13.5
2019-05-26T06:26:36.243Z,13.5
2019-05-26T06:28:36.690Z,13.5
2019-05-26T06:30:36.133Z,13.7
2019-05-26T06:32:36.639Z,13.7
2019-05-26T06:34:36.991Z,13.8
2019-05-26T06:36:36.473Z,13.8
2019-05-26T06:38:37.016Z,13.8
2019-05-26T06:40:36.640Z,13.9
2019-05-26T06:42:37.160Z,13.9
2019-05-26T06:44:54.631Z,13.8
2019-05-26T06:46:37.125Z,13.8
2019-05-26T06:48:36.694Z,13.8
2019-05-26T06:50:36.171Z,13.9
2019-05-26T06:52:36.688Z,13.9
2019-05-26T06:54:36.162Z,14
2019-05-26T06:56:36.598Z,14
2019-05-26T06:58:36.259Z,14
2019-05-26T07:00:36.777Z,14.1
2019-05-26T07:02:36.347Z,14.1
2019-05-26T07:04:36.880Z,14.1
2019-05-26T07:06:36.425Z,14.1
2019-05-26T07:08:37.501Z,14.1
2019-05-26T07:10:37.031Z,14.3
2019-05-26T07:12:36.501Z,14.3
2019-05-26T07:14:36.971Z,14.5
2019-05-26T07:16:39.399Z,14.5
2019-05-26T07:18:36.958Z,14.5
2019-05-26T07:20:36.444Z,14.7
2019-05-26T07:22:36.998Z,14.7
2019-05-26T07:24:36.438Z,14.9
2019-05-26T07:26:36.878Z,14.9
2019-05-26T07:28:36.426Z,14.9
2019-05-26T07:30:37.026Z,15
2019-05-26T07:32:36.499Z,15
2019-05-26T07:34:36.914Z,15.1
2019-05-26T07:36:36.392Z,15.1
2019-05-26T07:38:36.924Z,15.1
2019-05-26T07:40:36.923Z,15.2
2019-05-26T07:42:36.384Z,15.2
2019-05-26T07:44:36.804Z,15.2
2019-05-26T07:46:36.340Z,15.2
2019-05-26T07:48:36.960Z,15.2
2019-05-26T07:50:36.437Z,15.3
2019-05-26T07:52:37.045Z,15.3
2019-05-26T07:54:36.557Z,15.5
2019-05-26T07:56:37.502Z,15.5
2019-05-26T07:58:36.961Z,15.5
2019-05-26T08:02:36.560Z,15.8
2019-05-26T08:04:37.064Z,15.9
2019-05-26T08:06:36.527Z,15.9
2019-05-26T08:08:37.009Z,15.9
2019-05-26T08:10:36.318Z,16
2019-05-26T08:12:36.805Z,16
2019-05-26T08:14:36.169Z,15.9
2019-05-26T08:16:36.567Z,15.9
2019-05-26T08:18:36.161Z,15.9
2019-05-26T08:20:36.836Z,15.9
2019-05-26T08:22:36.292Z,15.9
2019-05-26T08:24:36.922Z,15.9
2019-05-26T08:26:36.366Z,15.9
2019-05-26T08:30:37.760Z,15.9
2019-05-26T08:32:36.990Z,15.9
2019-05-26T08:34:44.437Z,15.9
2019-05-26T08:36:40.149Z,15.9
2019-05-26T08:42:45.283Z,15.9
2019-05-26T08:46:36.854Z,17
2019-05-26T08:48:36.409Z,17
2019-05-26T08:50:35.869Z,17.1
2019-05-26T08:52:45.047Z,17
2019-05-26T08:54:44.143Z,17.1
2019-05-26T08:56:55.701Z,17.1
2019-05-26T08:58:38.883Z,17.1
2019-05-26T09:24:54.739Z,17.1
2019-05-26T09:36:36.135Z,17.1
2019-05-26T09:38:36.382Z,17.7
2019-05-26T09:52:35.988Z,18.2
2019-05-26T09:54:35.506Z,18.2
2019-05-26T09:56:35.874Z,18.2
2019-05-26T09:58:36.430Z,18.4
2019-05-26T10:00:35.964Z,18.4
2019-05-26T10:02:36.599Z,18.4
2019-05-26T10:04:36.280Z,18.4
2019-05-26T10:06:35.770Z,18.4
2019-05-26T10:08:36.442Z,18
2019-05-26T10:10:36.790Z,18
2019-05-26T10:12:36.530Z,17.2
2019-05-26T10:14:35.938Z,17.2
2019-05-26T10:16:36.448Z,17.2
2019-05-26T10:18:36.287Z,16.9
2019-05-26T10:20:35.763Z,16.9
2019-05-26T10:22:35.290Z,17
2019-05-26T10:24:36.866Z,17
2019-05-26T10:26:36.291Z,17
2019-05-26T10:28:36.933Z,17.1
2019-05-26T10:30:36.485Z,17.1
2019-05-26T10:32:36.455Z,17.2
2019-05-26T10:34:34.438Z,17.2
2019-05-26T10:36:35.787Z,17.2
2019-05-26T10:38:35.387Z,17.2
2019-05-26T10:40:35.919Z,17.2
2019-05-26T10:42:36.399Z,17.1
2019-05-26T10:44:36.102Z,17.1
2019-05-26T10:46:35.660Z,17.1
2019-05-26T10:48:36.113Z,17.1
2019-05-26T10:50:36.580Z,17.1
2019-05-26T10:52:36.006Z,17
2019-05-26T10:54:35.395Z,17
2019-05-26T10:56:35.928Z,17
2019-05-26T10:58:35.293Z,16.9
2019-05-26T11:00:36.716Z,16.9
2019-05-26T11:02:36.289Z,16.9
2019-05-26T11:04:36.011Z,16.9
2019-05-26T11:06:35.601Z,16.9
2019-05-26T11:08:36.225Z,16.7
2019-05-26T11:10:36.611Z,16.7
2019-05-26T11:12:36.166Z,16.8
2019-05-26T11:14:36.760Z,16.8
2019-05-26T11:16:36.236Z,16.8
2019-05-26T11:18:35.907Z,16.8
2019-05-26T11:20:35.460Z,16.8
2019-05-26T11:22:38.508Z,16.6
2019-05-26T11:24:34.638Z,16.6
2019-05-26T11:26:35.951Z,16.6
2019-05-26T11:28:36.444Z,17.2
2019-05-26T11:30:35.878Z,17.2
2019-05-26T11:32:35.172Z,18.2
2019-05-26T11:34:36.733Z,18.2
2019-05-26T11:36:36.154Z,18.2
2019-05-26T11:38:36.864Z,18.2
2019-05-26T11:40:36.356Z,18.2
2019-05-26T11:42:35.615Z,18.1
2019-05-26T11:44:36.132Z,18.1
2019-05-26T11:46:36.635Z,18.1
2019-05-26T11:48:40.038Z,17.8
2019-05-26T11:50:36.604Z,17.8
2019-05-26T11:52:35.880Z,17.5
2019-05-26T11:54:35.760Z,17.5
2019-05-26T11:56:36.133Z,17.5
2019-05-26T11:58:35.653Z,17.8
2019-05-26T12:02:36.143Z,17.8
2019-05-26T12:04:36.267Z,17.8
2019-05-26T12:06:34.355Z,17.8
2019-05-26T12:08:35.959Z,18.2
2019-05-26T12:10:36.516Z,18.2
2019-05-26T12:12:36.360Z,18.1
2019-05-26T12:14:36.273Z,18.1
2019-05-26T12:16:35.759Z,18.1
2019-05-26T12:18:36.406Z,18.3
2019-05-26T12:20:36.905Z,18.3
2019-05-26T12:22:36.311Z,19.4
2019-05-26T12:24:35.838Z,19.4
2019-05-26T12:26:36.299Z,19.4
2019-05-26T12:28:35.888Z,19.7
2019-05-26T12:30:35.374Z,19.7
2019-05-26T12:32:35.939Z,19.4
2019-05-26T12:34:36.650Z,19.4
2019-05-26T12:36:39.999Z,19.4
2019-05-26T12:38:36.636Z,19.5
2019-05-26T12:40:36.088Z,19.5
2019-05-26T12:42:35.604Z,19.4
2019-05-26T12:44:50.503Z,19.4
2019-05-26T12:46:36.250Z,19.4
2019-05-26T12:48:36.199Z,19.3
2019-05-26T12:50:36.886Z,19.3
2019-05-26T12:52:36.552Z,19.8
2019-05-26T12:54:36.415Z,19.8
2019-05-26T12:56:36.173Z,19.8
2019-05-26T12:58:36.934Z,19.5
2019-05-26T13:00:55.603Z,19.5
2019-05-26T13:02:36.811Z,19.5
2019-05-26T13:04:36.572Z,19.5
2019-05-26T13:06:36.092Z,19.5
2019-05-26T13:08:35.755Z,19.6
2019-05-26T13:10:36.398Z,19.6
2019-05-26T13:12:36.916Z,19.8
2019-05-26T13:14:36.499Z,19.8
2019-05-26T13:16:36.591Z,19.8
2019-05-26T13:18:36.416Z,19.5
2019-05-26T13:20:35.884Z,19.5
2019-05-26T13:22:36.961Z,19.3
2019-05-26T13:24:36.447Z,19.2
2019-05-26T13:26:35.988Z,19.2
2019-05-26T13:28:36.592Z,19
2019-05-26T13:30:36.091Z,19
2019-05-26T13:32:35.546Z,18.8
2019-05-26T13:34:36.635Z,18.8
2019-05-26T13:36:34.635Z,18.8
2019-05-26T13:38:36.237Z,18.9
2019-05-26T13:40:35.703Z,18.9
2019-05-26T13:42:36.178Z,19.1
2019-05-26T13:44:36.914Z,19.1
2019-05-26T13:46:36.529Z,19.1
2019-05-26T13:48:37.271Z,19.1
2019-05-26T13:50:36.856Z,19.1
2019-05-26T13:52:36.636Z,19
2019-05-26T13:54:36.462Z,19
2019-05-26T13:56:36.047Z,19
2019-05-26T13:58:35.720Z,18.9
2019-05-26T14:02:36.482Z,18.9
2019-05-26T14:04:36.141Z,18.9
2019-05-26T14:06:37.056Z,18.9
2019-05-26T14:08:36.743Z,18.2
2019-05-26T14:10:36.345Z,18.2
2019-05-26T14:12:36.868Z,18.1
2019-05-26T14:14:36.409Z,18.1
2019-05-26T14:16:35.822Z,18.1
2019-05-26T14:18:36.532Z,18.3
2019-05-26T14:20:35.999Z,18.3
2019-05-26T14:22:35.509Z,18.4
2019-05-26T14:24:36.023Z,18.4
2019-05-26T14:26:36.479Z,18.4
2019-05-26T14:28:36.046Z,18.5
2019-05-26T14:30:35.767Z,18.5
2019-05-26T14:32:36.229Z,18.4
2019-05-26T14:34:36.722Z,18.4
2019-05-26T14:36:36.155Z,18.4
2019-05-26T14:38:44.227Z,18.3
2019-05-26T14:40:36.802Z,18.3
2019-05-26T14:42:36.193Z,18.3
2019-05-26T14:44:35.863Z,18.3
2019-05-26T14:46:35.312Z,18.3
2019-05-26T14:48:35.874Z,18.3
2019-05-26T14:50:36.409Z,18.3
2019-05-26T14:52:35.980Z,18.4
2019-05-26T14:54:36.590Z,18.4
2019-05-26T14:56:36.187Z,18.4
2019-05-26T14:58:35.775Z,18.3
2019-05-26T15:00:36.370Z,18.3
2019-05-26T15:02:35.869Z,18.3
2019-05-26T15:04:35.561Z,18.3
2019-05-26T15:06:36.164Z,18.3
2019-05-26T15:08:35.921Z,18
2019-05-26T15:10:36.513Z,18
2019-05-26T15:12:36.090Z,17.9
2019-05-26T15:14:37.083Z,17.8
2019-05-26T15:16:36.675Z,17.8
2019-05-26T15:18:36.274Z,17.9
2019-05-26T15:20:35.843Z,17.9
2019-05-26T15:22:36.483Z,17.9
2019-05-26T15:24:36.048Z,18
2019-05-26T15:26:35.588Z,18
2019-05-26T15:28:36.142Z,18
2019-05-26T15:30:36.610Z,18
2019-05-26T15:32:36.141Z,18
2019-05-26T15:34:36.994Z,18
2019-05-26T15:36:36.426Z,18
2019-05-26T15:38:43.932Z,17.9
2019-05-26T15:40:35.353Z,17.9
2019-05-26T15:42:35.831Z,17.7
2019-05-26T15:44:36.548Z,17.7
2019-05-26T15:46:36.000Z,17.7
2019-05-26T15:48:36.653Z,17.5
2019-05-26T15:50:36.567Z,17.5
2019-05-26T15:52:36.268Z,17.3
2019-05-26T15:54:36.033Z,17.3
2019-05-26T15:56:35.679Z,17.3
2019-05-26T15:58:36.350Z,17.2
2019-05-26T16:02:36.928Z,17.2
2019-05-26T16:04:36.802Z,17.1
2019-05-26T16:06:36.377Z,17.1
2019-05-26T16:08:35.946Z,17
2019-05-26T16:10:36.454Z,17
2019-05-26T16:12:35.849Z,17
2019-05-26T16:14:36.418Z,17
2019-05-26T16:16:42.450Z,17
2019-05-26T16:18:37.541Z,17
2019-05-26T16:20:35.057Z,17
2019-05-26T16:22:34.953Z,17
2019-05-26T16:24:34.592Z,17
2019-05-26T16:26:34.252Z,17
2019-05-26T16:28:34.430Z,16.9
2019-05-26T16:30:34.143Z,16.9
2019-05-26T16:32:33.714Z,16.9
2019-05-26T16:34:36.212Z,16.9
2019-05-26T16:36:36.934Z,16.9
2019-05-26T16:38:37.097Z,16.8
2019-05-26T16:40:37.133Z,16.8
2019-05-26T16:42:36.904Z,16.8
2019-05-26T16:44:36.634Z,16.8
2019-05-26T16:46:36.302Z,16.8
2019-05-26T16:48:35.895Z,16.7
2019-05-26T16:50:35.632Z,16.7
2019-05-26T16:52:36.412Z,16.6
2019-05-26T16:54:36.163Z,16.6
2019-05-26T16:56:36.930Z,16.6
2019-05-26T16:58:36.485Z,16.4
2019-05-26T17:00:36.010Z,16.4
2019-05-26T17:02:35.616Z,16.4
2019-05-26T17:04:36.403Z,16.4
2019-05-26T17:06:37.059Z,16.1
2019-05-26T17:08:36.535Z,16
2019-05-26T17:10:36.425Z,16
2019-05-26T17:12:35.978Z,15.9
2019-05-26T17:14:36.627Z,15.8
2019-05-26T17:16:36.076Z,15.7
2019-05-26T17:18:35.692Z,15.7
2019-05-26T17:20:36.444Z,15.7
2019-05-26T17:22:36.238Z,15.6
2019-05-26T17:24:36.763Z,15.6
2019-05-26T17:26:36.279Z,15.5
2019-05-26T17:28:35.736Z,15.4
2019-05-26T17:30:36.350Z,15.4
2019-05-26T17:32:35.943Z,15.4
2019-05-26T17:34:36.620Z,15.4
2019-05-26T17:36:36.243Z,15.4
2019-05-26T17:38:36.034Z,15.3
2019-05-26T17:40:36.578Z,15.3
2019-05-26T17:42:36.274Z,15.3
2019-05-26T17:44:35.937Z,15.3
2019-05-26T17:46:35.531Z,15.2
2019-05-26T17:48:36.144Z,15.2
2019-05-26T17:50:36.682Z,15.2
2019-05-26T17:52:36.417Z,15.1
2019-05-26T17:54:36.131Z,15.1
2019-05-26T17:56:35.657Z,15
2019-05-26T17:58:36.100Z,15
2019-05-26T18:00:36.655Z,15
2019-05-26T18:02:36.087Z,14.9
2019-05-26T18:04:36.833Z,14.9
2019-05-26T18:06:36.345Z,14.8
2019-05-26T18:08:37.626Z,14.7
2019-05-26T18:10:36.086Z,14.7
2019-05-26T18:12:36.679Z,14.7
2019-05-26T18:14:36.376Z,14.7
2019-05-26T18:16:35.826Z,14.6
2019-05-26T18:18:35.513Z,14.5
2019-05-26T18:20:36.019Z,14.5
2019-05-26T18:22:36.664Z,14.4
2019-05-26T18:24:36.271Z,14.4
2019-05-26T18:26:35.718Z,14.3
2019-05-26T18:28:36.161Z,14.3
2019-05-26T18:30:36.798Z,14.3
2019-05-26T18:32:36.213Z,14.1
2019-05-26T18:34:36.727Z,14.1
2019-05-26T18:36:36.119Z,14
2019-05-26T18:38:36.623Z,13.9
2019-05-26T18:40:36.283Z,13.9
2019-05-26T18:42:35.857Z,13.8
2019-05-26T18:44:36.523Z,13.7
2019-05-26T18:46:35.937Z,13.6
2019-05-26T18:48:35.397Z,13.5
2019-05-26T18:50:36.084Z,13.5
2019-05-26T18:52:36.537Z,13.4
2019-05-26T18:54:36.208Z,13.3
2019-05-26T18:56:36.748Z,13.2
2019-05-26T18:58:36.187Z,13.1
2019-05-26T19:00:36.191Z,13.1
2019-05-26T19:02:34.303Z,13
2019-05-26T19:04:35.830Z,13
2019-05-26T19:06:36.391Z,12.7
2019-05-26T19:08:35.804Z,12.6
2019-05-26T19:10:36.474Z,12.6
2019-05-26T19:12:35.880Z,12.6
2019-05-26T19:14:36.531Z,12.5
2019-05-26T19:16:36.271Z,12.4
2019-05-26T19:18:35.725Z,12.3
2019-05-26T19:20:36.293Z,12.3
2019-05-26T19:22:35.709Z,12.2
2019-05-26T19:24:36.464Z,12.1
2019-05-26T19:26:35.958Z,12
2019-05-26T19:28:35.394Z,12
2019-05-26T19:30:37.041Z,12
2019-05-26T19:32:36.578Z,11.9
2019-05-26T19:34:37.092Z,11.9
2019-05-26T19:36:35.644Z,11.8
2019-05-26T19:38:35.962Z,11.8
2019-05-26T19:40:36.557Z,11.8
2019-05-26T19:42:36.026Z,11.8
2019-05-26T19:44:36.674Z,11.8
2019-05-26T19:46:36.158Z,11.8
2019-05-26T19:48:37.896Z,11.8
2019-05-26T19:50:36.506Z,11.8
2019-05-26T19:52:35.973Z,11.8
2019-05-26T19:54:36.506Z,11.8
2019-05-26T19:56:36.079Z,11.8
2019-05-26T19:58:36.587Z,11.8
2019-05-26T20:00:36.335Z,11.8
2019-05-26T20:02:36.882Z,11.8
2019-05-26T20:04:36.775Z,11.8
2019-05-26T20:06:39.401Z,11.8
2019-05-26T20:08:42.883Z,11.8
2019-05-26T20:10:36.582Z,11.8
2019-05-26T20:12:36.104Z,11.8
2019-05-26T20:14:37.318Z,11.8
2019-05-26T20:16:35.830Z,11.8
2019-05-26T20:18:36.417Z,11.8
2019-05-26T20:20:36.477Z,11.8
2019-05-26T20:22:34.491Z,11.8
2019-05-26T20:24:36.007Z,11.8
2019-05-26T20:26:36.530Z,11.8
2019-05-26T20:28:35.944Z,11.8
2019-05-26T20:30:36.533Z,11.8
2019-05-26T20:32:36.071Z,11.8
2019-05-26T20:34:36.808Z,11.8
2019-05-26T20:36:36.265Z,11.8
2019-05-26T20:38:36.885Z,11.8
2019-05-26T20:40:35.758Z,11.8
2019-05-26T20:42:37.519Z,11.8
2019-05-26T20:44:37.825Z,11.9
2019-05-26T20:46:36.716Z,11.9
2019-05-26T20:48:36.686Z,11.9
2019-05-26T20:50:34.986Z,12
2019-05-26T20:52:35.797Z,12
2019-05-26T20:54:36.344Z,12
2019-05-26T20:56:35.870Z,12
2019-05-26T20:58:36.280Z,12
2019-05-26T21:00:37.667Z,12
2019-05-26T21:02:36.208Z,12
2019-05-26T21:04:36.777Z,12
2019-05-26T21:06:36.409Z,12
2019-05-26T21:08:35.990Z,12
2019-05-26T21:10:35.589Z,12
2019-05-26T21:12:35.922Z,12
2019-05-26T21:14:36.513Z,12
2019-05-26T21:16:35.956Z,12
2019-05-26T21:18:36.634Z,12
2019-05-26T21:20:36.308Z,12.1
2019-05-26T21:22:35.798Z,12.1
2019-05-26T21:24:36.408Z,12.1
2019-05-26T21:26:35.894Z,12.1
2019-05-26T21:28:35.454Z,12.1
2019-05-26T21:30:36.212Z,12.1
2019-05-26T21:32:36.825Z,12.1
2019-05-26T21:34:36.433Z,12.1
2019-05-26T21:36:37.654Z,12.1
2019-05-26T21:38:36.188Z,12.1
2019-05-26T21:40:36.698Z,12.1
2019-05-26T21:42:36.053Z,12.1
2019-05-26T21:44:36.516Z,12.1
2019-05-26T21:53:08.196Z,12.1
2019-05-26T21:54:35.734Z,12.1
2019-05-26T21:56:36.127Z,12.1
2019-05-26T21:58:36.587Z,12.1
2019-05-26T22:00:36.723Z,12.1
2019-05-26T22:02:34.719Z,12.1
2019-05-26T22:04:36.301Z,12.1
2019-05-26T22:06:36.862Z,12.1
2019-05-26T22:08:36.451Z,12.1
2019-05-26T22:10:36.079Z,12
2019-05-26T22:12:35.582Z,12
2019-05-26T22:14:36.146Z,12.1
2019-05-26T22:16:36.683Z,12.1
2019-05-26T22:18:36.419Z,12
2019-05-26T22:20:36.023Z,12
2019-05-26T22:22:36.438Z,12
2019-05-26T22:24:35.959Z,12
2019-05-26T22:26:36.539Z,12
2019-05-26T22:28:37.011Z,12
2019-05-26T22:30:36.861Z,12
2019-05-26T22:32:36.674Z,12
2019-05-26T22:34:36.496Z,12
2019-05-26T22:36:36.073Z,12
2019-05-26T22:38:35.578Z,12
2019-05-26T22:40:36.258Z,12
2019-05-26T22:42:36.677Z,12
2019-05-26T22:44:36.362Z,12
2019-05-26T22:46:35.838Z,12
2019-05-26T22:48:36.475Z,12
2019-05-26T22:50:37.195Z,12
2019-05-26T22:52:36.648Z,11.9
2019-05-26T22:54:37.263Z,11.9
2019-05-26T22:56:36.768Z,11.9
2019-05-26T22:58:36.356Z,11.9
2019-05-26T23:00:36.071Z,11.9
2019-05-26T23:02:35.553Z,11.9
2019-05-26T23:04:36.057Z,11.9
2019-05-26T23:06:42.548Z,11.9
2019-05-26T23:08:45.082Z,11.9
2019-05-26T23:10:36.243Z,11.9
2019-05-26T23:12:34.166Z,11.9
2019-05-26T23:14:35.781Z,11.9
2019-05-26T23:16:35.484Z,11.9
2019-05-26T23:18:35.976Z,11.9
2019-05-26T23:20:36.523Z,11.9
2019-05-26T23:22:35.959Z,11.9
2019-05-26T23:24:36.622Z,11.8
2019-05-26T23:26:36.051Z,11.8
2019-05-26T23:28:35.563Z,11.8
2019-05-26T23:30:36.157Z,11.8
2019-05-26T23:32:36.579Z,11.8
2019-05-26T23:34:36.297Z,11.8
2019-05-26T23:36:35.766Z,11.8
2019-05-26T23:38:36.332Z,11.8
2019-05-26T23:40:35.895Z,11.8
2019-05-26T23:42:36.309Z,11.8
2019-05-26T23:44:35.927Z,11.8
2019-05-26T23:46:36.423Z,11.8
2019-05-26T23:48:35.865Z,11.8
2019-05-26T23:50:35.536Z,11.7
2019-05-26T23:52:35.997Z,11.7
2019-05-26T23:54:35.561Z,11.7
2019-05-26T23:56:36.053Z,11.7
2019-05-26T23:58:36.627Z,11.7
